Altadena, California
Current Conditions -  °F | °C
As of 7:55 PM on Tuesday 21 Oct 2014 (Local Time) from KEMT Reporting Station
Scattered Clouds Scattered Clouds  
Wind Chill: 70°   Ceiling: Unl
Heat Index: 70°   Visibility: 10mi
Dew Point: 59°   Wind: 3mph
Humidity: 68%   Direction: 210°SSW
Pressure: 29.87"   Gusts: NA
Location:  34.19°N, 118.13°W
Report Text: KEMT 220255Z 21003KT 10SM SCT040 21/15 A2987 RMK LAST
Loading
Personal Weather Stations






























Interactive Weather Map
Tropical Storm Tracking
New forecast layout! Learn more

10-Day Weather Forecast

Advertisements
Track Severe Weather on mobile